createdAt,value
2023-05-15T00:01:00.199Z,50.69
2023-05-15T00:03:35.006Z,50.91
2023-05-15T00:06:07.978Z,50.97
2023-05-15T00:08:40.958Z,50.91
2023-05-15T00:11:15.802Z,50.81
2023-05-15T00:13:48.751Z,51.02
2023-05-15T00:16:21.108Z,50.70
2023-05-15T00:18:53.438Z,50.85
2023-05-15T00:21:25.966Z,51.31
2023-05-15T00:23:58.915Z,50.72
2023-05-15T00:26:31.728Z,51.12
2023-05-15T00:29:04.312Z,51.29
2023-05-15T00:31:36.611Z,51.84
2023-05-15T00:34:09.138Z,51.74
2023-05-15T00:36:42.880Z,50.29
2023-05-15T00:39:17.400Z,51.26
2023-05-15T00:41:51.354Z,51.33
2023-05-15T00:44:22.840Z,50.14
2023-05-15T00:46:57.809Z,51.07
2023-05-15T00:49:31.273Z,51.19
2023-05-15T00:52:06.062Z,51.41
2023-05-15T00:54:40.175Z,51.75
2023-05-15T00:57:11.626Z,50.83
2023-05-15T00:59:44.955Z,51.77
2023-05-15T01:02:19.631Z,52.02
2023-05-15T01:04:54.854Z,52.12
2023-05-15T01:07:27.742Z,52.31
2023-05-15T01:10:03.674Z,52.65
2023-05-15T01:12:39.855Z,52.66
2023-05-15T01:15:14.692Z,52.63
2023-05-15T01:17:47.657Z,52.76
2023-05-15T01:20:22.077Z,53.27
2023-05-15T01:23:24.091Z,53.65
2023-05-15T01:26:36.381Z,53.33
2023-05-15T01:29:21.744Z,53.27
2023-05-15T01:32:00.275Z,53.58
2023-05-15T01:34:40.912Z,53.66
2023-05-15T01:37:16.293Z,53.70
2023-05-15T01:39:55.427Z,53.73
2023-05-15T01:42:34.672Z,53.66
2023-05-15T01:45:17.148Z,54.23
2023-05-15T01:47:51.180Z,54.04
2023-05-15T01:50:22.624Z,52.40
2023-05-15T01:53:00.223Z,53.47
2023-05-15T01:55:33.807Z,53.53
2023-05-15T01:58:08.565Z,53.78
2023-05-15T02:00:39.920Z,52.27
2023-05-15T02:03:12.816Z,52.85
2023-05-15T02:05:48.525Z,53.08
2023-05-15T02:08:25.896Z,52.83
2023-05-15T02:11:01.158Z,52.90
2023-05-15T02:13:36.735Z,53.10
2023-05-15T02:16:11.185Z,52.94
2023-05-15T02:18:46.779Z,53.37
2023-05-15T02:21:19.495Z,52.51
2023-05-15T02:23:51.747Z,53.22
2023-05-15T02:26:32.989Z,53.15
2023-05-15T02:29:18.181Z,53.45
2023-05-15T02:32:12.380Z,53.32
2023-05-15T02:34:52.190Z,53.43
2023-05-15T02:37:32.884Z,53.48
2023-05-15T02:40:08.244Z,53.77
2023-05-15T02:42:45.251Z,53.40
2023-05-15T02:45:18.514Z,53.74
2023-05-15T02:47:52.051Z,53.70
2023-05-15T02:50:25.479Z,53.49
2023-05-15T02:53:08.023Z,53.94
2023-05-15T02:55:41.793Z,53.80
2023-05-15T02:58:15.037Z,53.90
2023-05-15T03:00:47.408Z,53.75
2023-05-15T03:03:22.435Z,53.94
2023-05-15T03:05:56.703Z,54.06
2023-05-15T03:08:29.584Z,53.95
2023-05-15T03:11:01.856Z,54.12
2023-05-15T03:13:34.189Z,54.09
2023-05-15T03:16:06.884Z,54.28
2023-05-15T03:18:42.462Z,54.39
2023-05-15T03:21:16.242Z,53.87
2023-05-15T03:23:48.683Z,55.31
2023-05-15T03:26:21.999Z,54.49
2023-05-15T03:28:54.312Z,54.25
2023-05-15T03:31:29.620Z,54.72
2023-05-15T03:34:01.964Z,54.89
2023-05-15T03:36:34.705Z,54.91
2023-05-15T03:39:07.007Z,55.01
2023-05-15T03:41:51.712Z,55.22
2023-05-15T03:44:24.228Z,54.49
2023-05-15T03:46:59.236Z,54.61
2023-05-15T03:49:31.760Z,55.24
2023-05-15T03:52:04.555Z,54.87
2023-05-15T03:54:36.818Z,55.18
2023-05-15T03:57:09.432Z,55.89
2023-05-15T03:59:43.927Z,55.91
2023-05-15T04:02:18.244Z,55.41
2023-05-15T04:04:52.286Z,56.01
2023-05-15T04:07:25.303Z,56.19
2023-05-15T04:09:58.027Z,57.09
2023-05-15T04:12:31.063Z,57.35
2023-05-15T04:15:17.058Z,57.45
2023-05-15T04:17:51.106Z,57.04
2023-05-15T04:20:25.044Z,56.95
2023-05-15T04:22:55.788Z,55.30
2023-05-15T04:25:28.945Z,56.58
2023-05-15T04:28:01.488Z,56.61
2023-05-15T04:30:34.314Z,56.67
2023-05-15T04:33:07.342Z,57.12
2023-05-15T04:35:40.650Z,56.57
2023-05-15T04:38:13.127Z,56.29
2023-05-15T04:40:46.833Z,55.90
2023-05-15T04:43:19.222Z,56.15
2023-05-15T04:45:51.651Z,56.57
2023-05-15T04:48:23.930Z,57.25
2023-05-15T04:50:56.246Z,57.30
2023-05-15T04:53:31.235Z,58.14
2023-05-15T04:56:07.007Z,58.63
2023-05-15T04:58:39.740Z,59.99
2023-05-15T05:01:16.263Z,59.64
2023-05-15T05:03:49.119Z,59.44
2023-05-15T05:06:21.683Z,59.30
2023-05-15T05:08:54.111Z,59.32
2023-05-15T05:11:26.438Z,59.92
2023-05-15T05:13:58.774Z,58.83
2023-05-15T05:16:31.560Z,60.36
2023-05-15T05:19:06.418Z,59.93
2023-05-15T05:21:40.031Z,59.34
2023-05-15T05:24:12.944Z,59.68
2023-05-15T05:26:46.422Z,59.66
2023-05-15T05:29:18.671Z,59.60
2023-05-15T05:31:51.592Z,59.55
2023-05-15T05:34:24.826Z,60.34
2023-05-15T05:36:58.975Z,59.58
2023-05-15T05:39:30.005Z,58.24
2023-05-15T05:42:02.622Z,60.53
2023-05-15T05:44:35.407Z,61.43
2023-05-15T05:47:08.065Z,62.55
2023-05-15T05:49:43.808Z,61.55
2023-05-15T05:52:17.048Z,61.48
2023-05-15T05:54:49.339Z,60.88
2023-05-15T05:57:21.577Z,61.95
2023-05-15T05:59:54.251Z,61.37
2023-05-15T06:02:26.713Z,61.67
2023-05-15T06:04:59.838Z,61.25
2023-05-15T06:07:32.259Z,61.90
2023-05-15T06:10:04.804Z,61.97
2023-05-15T06:12:39.769Z,62.50
2023-05-15T06:15:13.708Z,62.89
2023-05-15T06:17:46.189Z,64.21
2023-05-15T06:20:20.173Z,64.78
2023-05-15T06:22:55.290Z,65.60
2023-05-15T06:25:30.786Z,64.80
2023-05-15T06:28:05.992Z,67.46
2023-05-15T06:30:42.051Z,67.37
2023-05-15T06:33:22.405Z,68.97
2023-05-15T06:35:55.251Z,69.24
2023-05-15T06:38:32.160Z,70.21
2023-05-15T06:41:05.000Z,71.15
2023-05-15T06:43:42.661Z,70.74
2023-05-15T06:46:19.312Z,70.73
2023-05-15T06:48:52.638Z,72.04
2023-05-15T06:51:28.668Z,73.29
2023-05-15T06:54:07.232Z,72.60
2023-05-15T06:56:42.024Z,73.67
2023-05-15T06:59:14.434Z,74.46
2023-05-15T07:01:46.746Z,74.75
2023-05-15T07:04:19.743Z,74.32
2023-05-15T07:06:52.324Z,74.21
2023-05-15T07:09:24.618Z,75.50
2023-05-15T07:11:58.009Z,75.82
2023-05-15T07:14:30.417Z,75.86
2023-05-15T07:17:02.913Z,75.99
2023-05-15T07:19:35.970Z,75.82
2023-05-15T07:22:08.555Z,76.73
2023-05-15T07:24:41.311Z,76.02
2023-05-15T07:27:13.654Z,76.80
2023-05-15T07:29:46.422Z,77.52
2023-05-15T07:32:18.908Z,77.32
2023-05-15T07:34:51.264Z,75.74
2023-05-15T07:37:25.053Z,75.64
2023-05-15T07:39:57.618Z,77.37
2023-05-15T07:42:29.847Z,77.69
2023-05-15T07:45:02.189Z,78.22
2023-05-15T07:47:35.824Z,78.50
2023-05-15T07:50:10.978Z,77.71
2023-05-15T07:52:43.318Z,76.95
2023-05-15T07:55:15.650Z,78.61
2023-05-15T07:57:53.549Z,78.30
2023-05-15T08:00:26.549Z,79.53
2023-05-15T08:02:58.919Z,77.94
2023-05-15T08:05:31.338Z,77.31
2023-05-15T08:08:04.739Z,77.41
2023-05-15T08:10:37.038Z,78.42
2023-05-15T08:13:09.642Z,77.98
2023-05-15T08:15:42.632Z,77.12
2023-05-15T08:18:15.083Z,76.72
2023-05-15T08:20:48.353Z,77.45
2023-05-15T08:23:20.568Z,77.70
2023-05-15T08:25:53.470Z,77.51
2023-05-15T08:28:25.768Z,77.40
2023-05-15T08:31:00.493Z,76.48
2023-05-15T08:33:33.133Z,77.56
2023-05-15T08:36:08.977Z,77.28
2023-05-15T08:38:41.584Z,76.93
2023-05-15T08:41:38.875Z,77.11
2023-05-15T08:44:14.115Z,77.16
2023-05-15T08:46:48.946Z,78.46
2023-05-15T08:49:32.004Z,78.37
2023-05-15T08:52:04.898Z,76.70
2023-05-15T08:54:37.950Z,76.92
2023-05-15T08:57:12.016Z,77.13
2023-05-15T08:59:44.780Z,78.45
2023-05-15T09:02:18.534Z,77.99
2023-05-15T09:04:51.074Z,79.71
2023-05-15T09:07:23.772Z,80.25
2023-05-15T09:09:57.886Z,79.43
2023-05-15T09:12:32.431Z,78.49
2023-05-15T09:15:17.963Z,79.22
2023-05-15T09:17:51.623Z,79.35
2023-05-15T09:20:32.934Z,78.93
2023-05-15T09:23:07.784Z,79.65
2023-05-15T09:25:42.819Z,79.44
2023-05-15T09:28:31.262Z,79.36
2023-05-15T09:31:05.971Z,79.48
2023-05-15T09:33:44.346Z,78.41
2023-05-15T09:36:24.774Z,78.45
2023-05-15T09:39:02.142Z,79.78
2023-05-15T09:41:34.612Z,78.12
2023-05-15T09:44:21.428Z,78.92
2023-05-15T09:46:57.436Z,79.27
2023-05-15T09:49:33.256Z,79.78
2023-05-15T09:52:09.329Z,80.72
2023-05-15T09:54:41.808Z,80.96
2023-05-15T09:57:15.598Z,80.29
2023-05-15T09:59:49.627Z,79.95
2023-05-15T10:02:32.759Z,80.45
2023-05-15T10:05:05.920Z,80.08
2023-05-15T10:07:46.090Z,80.10
2023-05-15T10:10:18.456Z,79.70
2023-05-15T10:12:54.259Z,79.31
2023-05-15T10:15:26.800Z,80.65
2023-05-15T10:18:00.289Z,81.09
2023-05-15T10:20:35.688Z,80.68
2023-05-15T10:23:11.802Z,80.57
2023-05-15T10:25:51.891Z,81.31
2023-05-15T10:28:25.855Z,81.75
2023-05-15T10:31:01.471Z,80.43
2023-05-15T10:33:36.974Z,81.32
2023-05-15T10:36:12.959Z,81.03
2023-05-15T10:38:49.925Z,80.52
2023-05-15T10:41:26.296Z,81.92
2023-05-15T10:44:01.746Z,81.88
2023-05-15T10:46:37.303Z,82.06
2023-05-15T10:49:31.093Z,83.44
2023-05-15T10:52:24.793Z,82.81
2023-05-15T10:59:07.207Z,82.94
2023-05-15T11:01:55.151Z,82.19
2023-05-15T11:04:36.067Z,82.22
2023-05-15T11:07:19.680Z,82.53
2023-05-15T11:10:40.305Z,82.72
2023-05-15T11:13:12.996Z,82.67
2023-05-15T11:16:01.158Z,83.13
2023-05-15T11:18:39.471Z,84.48
2023-05-15T11:21:18.808Z,84.13
2023-05-15T11:24:05.307Z,83.44
2023-05-15T11:26:43.313Z,83.74
2023-05-15T11:29:22.140Z,83.61
2023-05-15T11:31:54.576Z,83.46
2023-05-15T11:34:36.865Z,83.97
2023-05-15T11:37:22.260Z,84.09
2023-05-15T11:39:56.706Z,83.06
2023-05-15T11:42:30.695Z,84.31
2023-05-15T11:45:04.183Z,84.34
2023-05-15T11:47:37.141Z,84.25
2023-05-15T11:50:14.862Z,83.90
2023-05-15T11:52:47.508Z,84.55
2023-05-15T11:55:22.650Z,84.16
2023-05-15T11:57:57.831Z,84.82
2023-05-15T12:00:30.219Z,85.01
2023-05-15T12:03:03.922Z,84.60
2023-05-15T12:05:36.972Z,85.01
2023-05-15T12:08:13.593Z,85.69
2023-05-15T12:10:46.887Z,86.07
2023-05-15T12:13:21.888Z,86.16
2023-05-15T12:15:55.249Z,85.32
2023-05-15T12:18:28.320Z,85.88
2023-05-15T12:21:01.530Z,84.91
2023-05-15T12:23:39.600Z,85.70
2023-05-15T12:26:17.725Z,84.96
2023-05-15T12:28:56.310Z,85.35
2023-05-15T12:31:29.225Z,85.16
2023-05-15T12:34:03.766Z,85.78
2023-05-15T12:36:36.203Z,85.53
2023-05-15T12:39:11.898Z,85.69
2023-05-15T12:41:49.100Z,86.17
2023-05-15T12:44:22.324Z,85.61
2023-05-15T12:46:59.976Z,86.65
2023-05-15T12:49:32.670Z,86.07
2023-05-15T12:52:13.823Z,87.28
2023-05-15T12:54:47.387Z,87.19
2023-05-15T12:57:21.658Z,86.12
2023-05-15T12:59:54.481Z,85.72
2023-05-15T13:02:26.983Z,86.55
2023-05-15T13:04:59.470Z,86.15
2023-05-15T13:07:32.411Z,87.09
2023-05-15T13:10:12.088Z,86.53
2023-05-15T13:12:47.611Z,86.54
2023-05-15T13:15:30.570Z,86.64
2023-05-15T13:18:08.265Z,86.25
2023-05-15T13:20:43.273Z,86.71
2023-05-15T13:23:20.151Z,86.68
2023-05-15T13:25:52.713Z,86.54
2023-05-15T13:28:25.210Z,86.01
2023-05-15T13:30:57.748Z,86.02
2023-05-15T13:33:30.967Z,86.46
2023-05-15T13:36:03.462Z,86.88
2023-05-15T13:38:36.010Z,87.08
2023-05-15T13:41:24.401Z,86.84
2023-05-15T13:43:56.978Z,86.30
2023-05-15T13:46:29.428Z,86.41
2023-05-15T13:49:02.301Z,87.04
2023-05-15T13:51:34.683Z,87.59
2023-05-15T13:54:07.180Z,87.25
2023-05-15T13:56:41.779Z,87.20
2023-05-15T13:59:14.232Z,87.67
2023-05-15T14:01:46.745Z,86.53
2023-05-15T14:04:19.180Z,87.33
2023-05-15T14:06:52.611Z,85.91
2023-05-15T14:09:32.777Z,86.08
2023-05-15T14:12:22.448Z,85.59
2023-05-15T14:14:55.959Z,86.19
2023-05-15T14:17:29.193Z,85.98
2023-05-15T14:20:02.784Z,85.53
2023-05-15T14:22:35.570Z,85.39
2023-05-15T14:25:10.127Z,85.27
2023-05-15T14:27:47.952Z,84.53
2023-05-15T14:30:20.765Z,85.16
2023-05-15T14:32:53.900Z,84.81
2023-05-15T14:35:29.125Z,85.37
2023-05-15T14:38:03.229Z,84.75
2023-05-15T14:40:36.027Z,84.62
2023-05-15T14:43:12.124Z,85.04
2023-05-15T14:45:44.845Z,84.88
2023-05-15T14:48:17.319Z,85.18
2023-05-15T14:50:50.021Z,84.67
2023-05-15T14:53:22.668Z,84.92
2023-05-15T14:55:55.881Z,85.42
2023-05-15T14:58:29.507Z,84.85
2023-05-15T15:01:02.334Z,86.06
2023-05-15T15:03:37.247Z,85.39
2023-05-15T15:06:16.697Z,84.84
2023-05-15T15:08:58.752Z,85.61
2023-05-15T15:11:31.440Z,85.62
2023-05-15T15:14:04.691Z,85.29
2023-05-15T15:16:37.547Z,85.71
2023-05-15T15:19:20.166Z,85.53
2023-05-15T15:21:54.727Z,85.37
2023-05-15T15:24:29.959Z,85.99
2023-05-15T15:27:07.688Z,84.86
2023-05-15T15:29:41.145Z,84.30
2023-05-15T15:32:13.848Z,84.52
2023-05-15T15:34:46.841Z,84.45
2023-05-15T15:37:19.494Z,84.17
2023-05-15T15:39:52.460Z,83.36
2023-05-15T15:42:24.992Z,82.94
2023-05-15T15:44:57.903Z,82.80
2023-05-15T15:47:32.355Z,82.38
2023-05-15T15:50:05.305Z,82.60
2023-05-15T15:52:39.043Z,82.51
2023-05-15T15:55:13.094Z,82.35
2023-05-15T15:57:48.985Z,82.89
2023-05-15T16:00:22.063Z,82.52
2023-05-15T16:02:54.769Z,82.68
2023-05-15T16:05:27.602Z,83.09
2023-05-15T16:08:00.704Z,82.96
2023-05-15T16:10:33.530Z,83.22
2023-05-15T16:13:06.245Z,82.89
2023-05-15T16:15:41.830Z,83.21
2023-05-15T16:18:14.435Z,83.15
2023-05-15T16:20:48.686Z,83.07
2023-05-15T16:23:21.476Z,83.26
2023-05-15T16:25:54.511Z,83.02
2023-05-15T16:28:30.116Z,83.07
2023-05-15T16:31:03.415Z,82.99
2023-05-15T16:33:36.165Z,82.97
2023-05-15T16:36:10.618Z,83.05
2023-05-15T16:38:45.722Z,83.02
2023-05-15T16:41:18.256Z,83.29
2023-05-15T16:43:51.263Z,83.36
2023-05-15T16:46:24.591Z,82.99
2023-05-15T16:48:59.688Z,82.93
2023-05-15T16:51:32.736Z,84.11
2023-05-15T16:54:05.263Z,83.82
2023-05-15T16:56:37.690Z,83.81
2023-05-15T16:59:10.894Z,83.70
2023-05-15T17:01:43.455Z,84.08
2023-05-15T17:04:15.919Z,83.60
2023-05-15T17:06:48.257Z,84.05
2023-05-15T17:09:21.566Z,84.53
2023-05-15T17:11:54.023Z,84.50
2023-05-15T17:14:34.833Z,84.29
2023-05-15T17:17:07.601Z,84.34
2023-05-15T17:19:41.644Z,84.24
2023-05-15T17:22:13.950Z,84.52
2023-05-15T17:24:51.269Z,84.57
2023-05-15T17:27:25.492Z,84.81
2023-05-15T17:29:58.844Z,84.54
2023-05-15T17:32:31.578Z,85.23
2023-05-15T17:35:04.466Z,84.40
2023-05-15T17:37:37.997Z,84.79
2023-05-15T17:40:13.199Z,85.38
2023-05-15T17:42:44.405Z,84.76
2023-05-15T17:45:16.972Z,85.36
2023-05-15T17:47:49.827Z,85.88
2023-05-15T17:50:22.569Z,86.05
2023-05-15T17:52:54.962Z,86.53
2023-05-15T17:55:27.543Z,86.91
2023-05-15T19:04:06.686Z,87.51
2023-05-15T19:06:35.862Z,86.98
2023-05-15T19:09:09.827Z,87.03
2023-05-15T19:11:42.542Z,87.18
2023-05-15T19:14:14.928Z,87.08
2023-05-15T19:16:44.591Z,87.21
2023-05-15T19:19:14.411Z,87.56
2023-05-15T19:21:43.915Z,87.23
2023-05-15T19:24:13.421Z,87.47
2023-05-15T19:26:45.779Z,87.66
2023-05-15T19:29:17.295Z,88.05
2023-05-15T19:31:51.708Z,88.30
2023-05-15T19:34:20.991Z,88.17
2023-05-15T19:36:52.796Z,88.56
2023-05-15T19:39:22.345Z,88.48
2023-05-15T19:41:51.594Z,88.71
2023-05-15T19:44:31.657Z,89.02
2023-05-15T19:47:03.191Z,89.02
2023-05-15T19:49:35.866Z,88.78
2023-05-15T19:52:06.953Z,88.93
2023-05-15T19:54:38.718Z,88.89
2023-05-15T19:57:08.459Z,88.85
2023-05-15T19:59:40.293Z,89.29
2023-05-15T20:02:12.273Z,89.42
2023-05-15T20:04:42.278Z,89.68
2023-05-15T20:07:12.337Z,89.68
2023-05-15T20:09:42.092Z,89.71
2023-05-15T20:12:12.527Z,89.98
2023-05-15T20:14:47.911Z,90.54
2023-05-15T20:17:17.448Z,90.99
2023-05-15T20:19:52.954Z,90.73
2023-05-15T20:22:28.185Z,90.99
2023-05-15T20:24:57.473Z,91.08
2023-05-15T20:27:28.281Z,91.28
2023-05-15T20:29:58.831Z,91.31
2023-05-15T20:32:31.121Z,91.21
2023-05-15T20:35:01.242Z,91.35
2023-05-15T20:37:30.566Z,91.68
2023-05-15T20:40:00.652Z,92.01
2023-05-15T20:42:32.594Z,91.92
2023-05-15T20:45:14.138Z,91.81
2023-05-15T20:47:45.632Z,91.65
2023-05-15T20:50:16.101Z,92.04
2023-05-15T20:52:45.731Z,91.87
2023-05-15T20:55:15.919Z,92.24
2023-05-15T20:57:46.253Z,92.36
2023-05-15T21:00:20.485Z,92.30
2023-05-15T21:02:50.840Z,92.31
2023-05-15T21:05:20.321Z,92.40
2023-05-15T21:07:49.323Z,92.35
2023-05-15T21:10:20.813Z,91.94
2023-05-15T21:13:00.559Z,91.89
2023-05-15T21:15:32.613Z,92.05
2023-05-15T21:18:04.453Z,91.98
2023-05-15T21:20:35.138Z,92.19
2023-05-15T21:23:07.005Z,92.33
2023-05-15T21:25:36.007Z,92.18
2023-05-15T21:28:07.144Z,91.98
2023-05-15T21:30:36.071Z,92.22
2023-05-15T21:33:08.620Z,92.21
2023-05-15T21:35:39.143Z,92.06
2023-05-15T21:38:11.352Z,92.34
2023-05-15T21:40:40.511Z,92.35
2023-05-15T21:43:10.259Z,91.92
2023-05-15T21:45:41.333Z,91.98
2023-05-15T21:48:10.737Z,92.18
2023-05-15T21:50:40.041Z,92.12
2023-05-15T21:53:09.294Z,92.21
2023-05-15T21:55:39.390Z,92.05
2023-05-15T21:58:11.271Z,92.27
2023-05-15T22:00:40.659Z,92.19
2023-05-15T22:03:12.948Z,92.13
2023-05-15T22:05:43.186Z,92.21
2023-05-15T22:08:13.491Z,92.22
2023-05-15T22:10:42.552Z,92.16
2023-05-15T22:13:16.176Z,92.11
2023-05-15T22:15:50.709Z,92.16
2023-05-15T22:18:22.774Z,92.05
2023-05-15T22:20:54.670Z,92.25
2023-05-15T22:23:24.857Z,92.23
2023-05-15T22:25:53.883Z,92.11
2023-05-15T22:28:27.808Z,92.17
2023-05-15T22:31:05.573Z,92.19
2023-05-15T22:33:39.040Z,92.36
2023-05-15T22:36:10.405Z,92.42
2023-05-15T22:38:41.856Z,92.16
2023-05-15T22:41:13.519Z,92.33
2023-05-15T22:43:50.406Z,92.27
2023-05-15T22:46:21.909Z,92.18
2023-05-15T22:48:52.483Z,92.32
2023-05-15T22:51:21.827Z,92.20
2023-05-15T22:53:50.831Z,92.07
2023-05-15T22:56:19.841Z,92.20
2023-05-15T22:58:49.210Z,92.20
2023-05-15T23:01:18.429Z,92.03
2023-05-15T23:03:47.643Z,92.00
2023-05-15T23:06:20.458Z,91.98
2023-05-15T23:08:50.753Z,91.88
2023-05-15T23:11:20.918Z,91.90
2023-05-15T23:13:50.204Z,91.83
2023-05-15T23:16:19.354Z,91.69
2023-05-15T23:18:55.718Z,91.74
2023-05-15T23:21:25.203Z,91.71
2023-05-15T23:23:54.495Z,91.69
2023-05-15T23:26:23.555Z,91.75
2023-05-15T23:28:52.565Z,91.61
2023-05-15T23:31:21.536Z,91.66
2023-05-15T23:33:53.832Z,91.74
2023-05-15T23:36:25.146Z,91.80
2023-05-15T23:38:57.317Z,91.79
2023-05-15T23:41:26.889Z,91.95
2023-05-15T23:43:55.712Z,92.09
2023-05-15T23:46:25.153Z,92.09
2023-05-15T23:48:55.811Z,92.04
2023-05-15T23:51:24.974Z,92.12
2023-05-15T23:53:54.091Z,92.22
2023-05-15T23:56:23.350Z,92.22
2023-05-15T23:58:52.585Z,92.36
